createdAt,value
2022-12-22T00:01:19.337Z,3.64
2022-12-22T00:02:40.255Z,3.67
2022-12-22T00:04:00.756Z,3.67
2022-12-22T00:05:21.114Z,3.68
2022-12-22T00:06:41.131Z,3.67
2022-12-22T00:08:01.184Z,3.69
2022-12-22T00:09:21.330Z,3.69
2022-12-22T00:10:41.637Z,3.69
2022-12-22T00:12:02.200Z,3.69
2022-12-22T00:13:23.160Z,3.70
2022-12-22T00:14:43.893Z,3.71
2022-12-22T00:16:05.042Z,3.72
2022-12-22T00:17:32.769Z,3.72
2022-12-22T00:18:52.853Z,3.73
2022-12-22T00:20:18.286Z,3.73
2022-12-22T00:21:39.112Z,3.74
2022-12-22T00:22:59.403Z,3.75
2022-12-22T00:24:19.454Z,3.72
2022-12-22T00:25:39.932Z,3.71
2022-12-22T00:27:01.010Z,3.71
2022-12-22T00:28:22.784Z,3.69
2022-12-22T00:29:43.053Z,3.63
2022-12-22T00:31:04.289Z,3.58
2022-12-22T00:32:25.029Z,3.56
2022-12-22T00:33:45.121Z,3.57
2022-12-22T00:35:05.771Z,3.56
2022-12-22T00:36:29.116Z,3.56
2022-12-22T00:37:51.320Z,3.55
2022-12-22T00:39:11.422Z,3.53
2022-12-22T00:40:35.678Z,3.52
2022-12-22T00:41:55.898Z,3.53
2022-12-22T00:43:16.260Z,3.52
2022-12-22T00:44:36.380Z,3.47
2022-12-22T00:45:57.179Z,3.38
2022-12-22T00:47:17.531Z,3.33
2022-12-22T00:48:43.705Z,3.32
2022-12-22T00:50:05.387Z,3.26
2022-12-22T00:51:26.055Z,3.26
2022-12-22T00:52:46.192Z,3.27
2022-12-22T00:54:06.233Z,3.25
2022-12-22T00:55:33.551Z,3.24
2022-12-22T00:56:54.138Z,3.21
2022-12-22T00:58:14.767Z,3.20
2022-12-22T00:59:34.960Z,3.19
2022-12-22T01:00:55.167Z,3.20
2022-12-22T01:02:15.726Z,3.16
2022-12-22T01:03:36.175Z,3.17
2022-12-22T01:04:56.464Z,3.18
2022-12-22T01:06:21.129Z,3.19
2022-12-22T01:07:43.434Z,3.19
2022-12-22T01:09:04.135Z,3.15
2022-12-22T01:10:26.141Z,3.14
2022-12-22T01:11:46.645Z,3.18
2022-12-22T01:13:06.714Z,3.17
2022-12-22T01:14:34.152Z,3.17
2022-12-22T01:15:54.423Z,3.18
2022-12-22T01:17:14.663Z,3.21
2022-12-22T01:18:35.453Z,3.24
2022-12-22T01:19:55.932Z,3.26
2022-12-22T01:21:18.179Z,3.28
2022-12-22T01:22:39.858Z,3.28
2022-12-22T01:24:00.422Z,3.27
2022-12-22T01:25:20.984Z,3.24
2022-12-22T01:26:41.198Z,3.23
2022-12-22T01:28:01.450Z,3.22
2022-12-22T01:29:22.304Z,3.23
2022-12-22T01:30:42.643Z,3.22
2022-12-22T01:32:03.090Z,3.23
2022-12-22T01:33:24.166Z,3.26
2022-12-22T01:34:44.295Z,3.28
2022-12-22T01:36:04.682Z,3.28
2022-12-22T01:37:24.813Z,3.28
2022-12-22T01:38:44.992Z,3.29
2022-12-22T01:40:05.177Z,3.31
2022-12-22T01:41:29.885Z,3.32
2022-12-22T01:42:51.750Z,3.32
2022-12-22T01:44:12.031Z,3.30
2022-12-22T01:45:40.224Z,3.33
2022-12-22T01:47:05.081Z,3.36
2022-12-22T01:48:30.202Z,3.39
2022-12-22T01:50:00.198Z,3.44
2022-12-22T01:51:31.617Z,3.43
2022-12-22T01:52:53.978Z,3.45
2022-12-22T01:54:15.611Z,3.43
2022-12-22T01:55:39.043Z,3.42
2022-12-22T01:57:00.656Z,3.44
2022-12-22T01:58:21.244Z,3.44
2022-12-22T01:59:41.401Z,3.43
2022-12-22T02:01:03.589Z,3.42
2022-12-22T02:02:25.426Z,3.41
2022-12-22T02:03:46.038Z,3.45
2022-12-22T02:05:06.493Z,3.44
2022-12-22T02:06:27.197Z,3.40
2022-12-22T02:07:56.907Z,3.38
2022-12-22T02:09:40.227Z,3.37
2022-12-22T02:11:08.267Z,3.42
2022-12-22T02:12:28.327Z,3.40
2022-12-22T02:14:01.583Z,3.38
2022-12-22T02:15:21.598Z,3.40
2022-12-22T02:16:48.216Z,3.40
2022-12-22T02:18:17.503Z,3.42
2022-12-22T02:20:00.788Z,3.42
2022-12-22T02:21:26.536Z,3.39
2022-12-22T02:22:55.911Z,3.36
2022-12-22T02:24:25.187Z,3.38
2022-12-22T02:25:48.856Z,3.39
2022-12-22T02:27:09.864Z,3.43
2022-12-22T02:28:31.421Z,3.42
2022-12-22T02:29:54.502Z,3.42
2022-12-22T02:31:15.619Z,3.45
2022-12-22T02:32:35.833Z,3.45
2022-12-22T02:33:56.071Z,3.43
2022-12-22T02:35:16.293Z,3.37
2022-12-22T02:36:55.581Z,3.34
2022-12-22T02:38:34.382Z,3.34
2022-12-22T02:40:01.978Z,3.37
2022-12-22T02:41:34.414Z,3.38
2022-12-22T02:43:15.186Z,3.39
2022-12-22T02:44:44.348Z,3.43
2022-12-22T02:46:16.093Z,3.42
2022-12-22T02:47:46.871Z,3.39
2022-12-22T02:49:12.242Z,3.36
2022-12-22T02:50:43.446Z,3.32
2022-12-22T02:52:06.514Z,3.32
2022-12-22T02:53:27.328Z,3.33
2022-12-22T02:54:48.545Z,3.36
2022-12-22T02:56:08.639Z,3.36
2022-12-22T02:57:29.213Z,3.31
2022-12-22T02:58:51.350Z,3.32
2022-12-22T03:00:12.021Z,3.26
2022-12-22T03:01:32.358Z,3.24
2022-12-22T03:02:52.720Z,3.22
2022-12-22T03:04:13.347Z,3.23
2022-12-22T03:05:34.293Z,3.22
2022-12-22T03:06:54.432Z,3.23
2022-12-22T03:08:14.558Z,3.22
2022-12-22T03:09:34.591Z,3.21
2022-12-22T03:10:55.216Z,3.22
2022-12-22T03:12:15.422Z,3.21
2022-12-22T03:13:35.380Z,3.21
2022-12-22T03:14:55.448Z,3.20
2022-12-22T03:16:15.574Z,3.21
2022-12-22T03:17:36.159Z,3.20
2022-12-22T03:18:56.265Z,3.20
2022-12-22T03:20:17.148Z,3.18
2022-12-22T03:21:37.398Z,3.20
2022-12-22T03:22:57.542Z,3.25
2022-12-22T03:24:17.604Z,3.25
2022-12-22T03:25:38.194Z,3.22
2022-12-22T03:26:40.023Z,3.17
2022-12-22T03:27:41.896Z,3.17
2022-12-22T03:28:43.821Z,3.16
2022-12-22T03:29:45.598Z,3.10
2022-12-22T03:30:52.987Z,3.04
2022-12-22T03:31:54.882Z,3.07
2022-12-22T03:32:56.702Z,3.08
2022-12-22T03:33:58.621Z,3.10
2022-12-22T03:35:00.504Z,3.13
2022-12-22T03:36:02.805Z,3.12
2022-12-22T03:37:04.653Z,3.08
2022-12-22T03:38:06.497Z,3.09
2022-12-22T03:39:08.444Z,3.08
2022-12-22T03:40:10.477Z,3.11
2022-12-22T03:41:34.935Z,3.12
2022-12-22T03:42:55.186Z,3.13
2022-12-22T03:44:15.928Z,3.12
2022-12-22T03:45:36.970Z,3.06
2022-12-22T03:46:38.928Z,3.00
2022-12-22T03:47:40.926Z,3.01
2022-12-22T03:48:43.203Z,3.03
2022-12-22T03:49:45.043Z,3.02
2022-12-22T03:50:46.926Z,2.98
2022-12-22T03:51:52.304Z,2.95
2022-12-22T03:52:54.160Z,2.95
2022-12-22T03:53:55.900Z,2.94
2022-12-22T03:54:57.773Z,2.93
2022-12-22T03:56:05.674Z,2.93
2022-12-22T03:57:09.513Z,2.92
2022-12-22T03:58:11.274Z,2.91
2022-12-22T03:59:13.242Z,2.91
2022-12-22T04:00:15.475Z,2.93
2022-12-22T04:01:17.406Z,2.94
2022-12-22T04:02:20.473Z,2.95
2022-12-22T04:03:22.449Z,2.98
2022-12-22T04:04:25.649Z,3.00
2022-12-22T04:05:27.554Z,2.98
2022-12-22T04:06:29.384Z,2.99
2022-12-22T04:07:31.486Z,3.02
2022-12-22T04:08:33.281Z,3.06
2022-12-22T04:09:35.209Z,3.06
2022-12-22T04:10:55.310Z,3.06
2022-12-22T04:12:15.372Z,3.05
2022-12-22T04:13:17.555Z,2.97
2022-12-22T04:14:19.723Z,2.94
2022-12-22T04:15:28.928Z,2.92
2022-12-22T04:16:31.034Z,2.94
2022-12-22T04:17:32.895Z,2.92
2022-12-22T04:18:35.044Z,2.94
2022-12-22T04:19:36.848Z,2.95
2022-12-22T04:20:38.710Z,2.92
2022-12-22T04:21:40.585Z,2.87
2022-12-22T04:22:42.411Z,2.88
2022-12-22T04:23:44.450Z,2.91
2022-12-22T04:24:46.373Z,2.94
2022-12-22T04:25:48.189Z,2.92
2022-12-22T04:26:50.310Z,2.94
2022-12-22T04:27:52.177Z,2.94
2022-12-22T04:28:54.433Z,2.96
2022-12-22T04:29:56.366Z,2.94
2022-12-22T04:30:58.266Z,2.93
2022-12-22T04:32:00.206Z,2.95
2022-12-22T04:33:02.095Z,2.96
2022-12-22T04:34:04.055Z,2.94
2022-12-22T04:35:06.684Z,2.94
2022-12-22T04:36:08.740Z,2.92
2022-12-22T04:37:17.121Z,2.93
2022-12-22T04:38:19.753Z,2.96
2022-12-22T04:39:21.625Z,2.98
2022-12-22T04:40:23.421Z,2.94
2022-12-22T04:41:25.324Z,2.89
2022-12-22T04:42:27.231Z,2.88
2022-12-22T04:43:29.763Z,2.87
2022-12-22T04:44:31.646Z,2.84
2022-12-22T04:45:33.627Z,2.83
2022-12-22T04:46:35.570Z,2.84
2022-12-22T04:47:37.420Z,2.85
2022-12-22T04:48:39.241Z,2.84
2022-12-22T04:49:41.039Z,2.79
2022-12-22T04:50:43.019Z,2.79
2022-12-22T04:51:45.467Z,2.78
2022-12-22T04:52:47.429Z,2.78
2022-12-22T04:53:49.200Z,2.82
2022-12-22T04:54:51.086Z,2.82
2022-12-22T04:55:58.153Z,2.83
2022-12-22T04:57:00.045Z,2.83
2022-12-22T04:58:01.995Z,2.84
2022-12-22T04:59:03.948Z,2.85
2022-12-22T05:00:06.116Z,2.86
2022-12-22T05:01:09.381Z,2.86
2022-12-22T05:02:11.605Z,2.90
2022-12-22T05:03:13.546Z,2.87
2022-12-22T05:04:20.287Z,2.87
2022-12-22T05:05:25.532Z,2.87
2022-12-22T05:06:27.395Z,2.88
2022-12-22T05:07:29.329Z,2.90
2022-12-22T05:08:31.190Z,2.89
2022-12-22T05:09:33.064Z,2.89
2022-12-22T05:10:35.077Z,2.91
2022-12-22T05:11:37.036Z,2.92
2022-12-22T05:12:56.806Z,2.94
2022-12-22T05:14:05.226Z,2.91
2022-12-22T05:15:09.071Z,2.92
2022-12-22T05:16:14.998Z,2.94
2022-12-22T05:17:16.873Z,2.98
2022-12-22T05:18:18.640Z,3.01
2022-12-22T05:19:21.762Z,2.98
2022-12-22T05:20:25.858Z,2.97
2022-12-22T05:21:27.680Z,2.95
2022-12-22T05:22:29.511Z,2.92
2022-12-22T05:23:31.319Z,2.91
2022-12-22T05:24:33.247Z,2.92
2022-12-22T05:25:35.778Z,2.95
2022-12-22T05:26:37.669Z,2.96
2022-12-22T05:27:39.491Z,2.98
2022-12-22T05:28:42.147Z,2.99
2022-12-22T05:29:45.544Z,3.00
2022-12-22T05:30:47.498Z,3.00
2022-12-22T05:31:49.354Z,3.00
2022-12-22T05:32:51.183Z,3.00
2022-12-22T05:33:53.203Z,3.00
2022-12-22T05:34:55.126Z,2.99
2022-12-22T05:35:56.928Z,3.00
2022-12-22T05:36:58.683Z,2.97
2022-12-22T05:38:00.594Z,2.97
2022-12-22T05:39:02.390Z,2.98
2022-12-22T05:40:04.854Z,2.99
2022-12-22T05:41:07.346Z,3.02
2022-12-22T05:42:09.254Z,3.02
2022-12-22T05:43:11.228Z,3.02
2022-12-22T05:44:13.081Z,3.00
2022-12-22T05:45:16.957Z,2.99
2022-12-22T05:46:18.897Z,2.99
2022-12-22T05:47:20.829Z,2.98
2022-12-22T05:48:28.500Z,2.95
2022-12-22T05:49:33.979Z,2.96
2022-12-22T05:50:35.716Z,2.99
2022-12-22T05:51:37.623Z,3.00
2022-12-22T05:52:39.805Z,3.02
2022-12-22T05:53:42.734Z,3.04
2022-12-22T05:54:44.543Z,3.06
2022-12-22T05:55:46.381Z,3.08
2022-12-22T05:56:48.291Z,3.09
2022-12-22T05:57:50.167Z,3.12
2022-12-22T05:58:53.501Z,3.12
2022-12-22T05:59:55.418Z,3.14
2022-12-22T06:00:58.551Z,3.17
2022-12-22T06:02:00.630Z,3.17
2022-12-22T06:03:02.869Z,3.20
2022-12-22T06:04:05.430Z,3.18
2022-12-22T06:05:07.585Z,3.17
2022-12-22T06:06:09.468Z,3.16
2022-12-22T06:07:11.494Z,3.15
2022-12-22T06:08:13.333Z,3.17
2022-12-22T06:09:15.247Z,3.13
2022-12-22T06:10:17.154Z,3.12
2022-12-22T06:11:19.682Z,3.12
2022-12-22T06:12:21.624Z,3.12
2022-12-22T06:13:23.688Z,3.08
2022-12-22T06:14:25.559Z,3.08
2022-12-22T06:15:27.377Z,3.08
2022-12-22T06:16:29.679Z,3.06
2022-12-22T06:17:31.550Z,3.09
2022-12-22T06:18:33.416Z,3.09
2022-12-22T06:19:35.566Z,3.09
2022-12-22T06:20:37.409Z,3.11
2022-12-22T06:21:39.521Z,3.10
2022-12-22T06:22:41.291Z,3.10
2022-12-22T06:23:43.150Z,3.09
2022-12-22T06:24:45.155Z,3.10
2022-12-22T06:25:56.179Z,3.09
2022-12-22T06:26:58.079Z,3.09
2022-12-22T06:27:59.977Z,3.10
2022-12-22T06:29:01.974Z,3.06
2022-12-22T06:30:04.197Z,3.08
2022-12-22T06:31:06.022Z,3.07
2022-12-22T06:32:07.810Z,3.08
2022-12-22T06:33:09.632Z,3.09
2022-12-22T06:34:11.609Z,3.10
2022-12-22T06:35:13.511Z,3.12
2022-12-22T06:36:15.363Z,3.12
2022-12-22T06:37:17.240Z,3.12
2022-12-22T06:38:19.028Z,3.12
2022-12-22T06:39:20.930Z,3.14
2022-12-22T06:40:22.848Z,3.15
2022-12-22T06:41:42.723Z,3.18
2022-12-22T06:43:08.289Z,3.18
2022-12-22T06:44:10.653Z,3.16
2022-12-22T06:45:12.559Z,3.16
2022-12-22T06:46:14.490Z,3.17
2022-12-22T06:47:16.640Z,3.18
2022-12-22T06:48:18.813Z,3.18
2022-12-22T06:49:20.784Z,3.15
2022-12-22T06:50:22.633Z,3.14
2022-12-22T06:51:24.418Z,3.16
2022-12-22T06:52:26.243Z,3.17
2022-12-22T06:53:28.159Z,3.17
2022-12-22T06:54:30.028Z,3.12
2022-12-22T06:55:32.031Z,3.11
2022-12-22T06:56:34.628Z,3.09
2022-12-22T06:57:36.492Z,3.09
2022-12-22T06:58:38.342Z,3.13
2022-12-22T06:59:40.253Z,3.13
2022-12-22T07:00:43.440Z,3.14
2022-12-22T07:01:45.508Z,3.11
2022-12-22T07:02:47.534Z,3.09
2022-12-22T07:03:49.657Z,3.07
2022-12-22T07:04:51.766Z,3.08
2022-12-22T07:05:54.014Z,3.12
2022-12-22T07:06:55.914Z,3.12
2022-12-22T07:08:02.512Z,3.12
2022-12-22T07:09:07.912Z,3.12
2022-12-22T07:10:09.920Z,3.11
2022-12-22T07:11:12.056Z,3.11
2022-12-22T07:12:13.913Z,3.10
2022-12-22T07:13:22.001Z,3.12
2022-12-22T07:14:23.858Z,3.14
2022-12-22T07:15:25.609Z,3.14
2022-12-22T07:16:27.510Z,3.14
2022-12-22T07:17:29.310Z,3.15
2022-12-22T07:18:32.661Z,3.16
2022-12-22T07:19:34.607Z,3.19
2022-12-22T07:20:36.429Z,3.23
2022-12-22T07:21:38.313Z,3.23
2022-12-22T07:22:40.190Z,3.22
2022-12-22T07:23:42.288Z,3.25
2022-12-22T07:24:44.103Z,3.25
2022-12-22T07:25:45.981Z,3.29
2022-12-22T07:26:47.812Z,3.32
2022-12-22T07:27:49.738Z,3.32
2022-12-22T07:28:51.649Z,3.32
2022-12-22T07:29:53.469Z,3.31
2022-12-22T07:30:55.454Z,3.29
2022-12-22T07:31:57.649Z,3.30
2022-12-22T07:32:59.708Z,3.32
2022-12-22T07:34:01.613Z,3.37
2022-12-22T07:35:05.913Z,3.39
2022-12-22T07:36:10.514Z,3.45
2022-12-22T07:37:13.973Z,3.45
2022-12-22T07:38:15.850Z,3.45
2022-12-22T07:39:17.713Z,3.39
2022-12-22T07:40:19.602Z,3.34
2022-12-22T07:41:39.967Z,3.32
2022-12-22T07:42:47.732Z,3.29
2022-12-22T07:43:49.580Z,3.29
2022-12-22T07:44:51.494Z,3.32
2022-12-22T07:45:53.410Z,3.37
2022-12-22T07:46:55.395Z,3.40
2022-12-22T07:48:00.870Z,3.44
2022-12-22T07:49:21.239Z,3.48
2022-12-22T07:50:25.784Z,3.51
2022-12-22T07:51:27.788Z,3.54
2022-12-22T07:52:29.654Z,3.57
2022-12-22T07:53:32.063Z,3.60
2022-12-22T07:54:41.148Z,3.60
2022-12-22T07:55:43.459Z,3.58
2022-12-22T07:56:46.787Z,3.62
2022-12-22T07:57:48.703Z,3.65
2022-12-22T07:58:50.544Z,3.67
2022-12-22T07:59:52.996Z,3.67
2022-12-22T08:01:01.738Z,3.71
2022-12-22T08:02:03.832Z,3.73
2022-12-22T08:03:06.453Z,3.74
2022-12-22T08:04:09.368Z,3.73
2022-12-22T08:05:11.353Z,3.69
2022-12-22T08:06:13.258Z,3.73
2022-12-22T08:07:15.162Z,3.78
2022-12-22T08:08:17.073Z,3.79
2022-12-22T08:09:21.816Z,3.76
2022-12-22T08:10:23.858Z,3.75
2022-12-22T08:11:25.945Z,3.71
2022-12-22T08:12:29.932Z,3.69
2022-12-22T08:13:32.178Z,3.71
2022-12-22T08:14:34.041Z,3.71
2022-12-22T08:15:35.888Z,3.74
2022-12-22T08:16:37.922Z,3.73
2022-12-22T08:17:40.378Z,3.73
2022-12-22T08:18:42.177Z,3.74
2022-12-22T08:19:44.089Z,3.73
2022-12-22T08:20:50.618Z,3.73
2022-12-22T08:21:53.784Z,3.75
2022-12-22T08:22:56.938Z,3.78
2022-12-22T08:23:58.811Z,3.79
2022-12-22T08:25:00.725Z,3.80
2022-12-22T08:26:02.545Z,3.83
2022-12-22T08:27:06.760Z,3.85
2022-12-22T08:28:08.766Z,3.84
2022-12-22T08:29:16.198Z,3.90
2022-12-22T08:30:18.168Z,3.92
2022-12-22T08:31:21.130Z,3.94
2022-12-22T08:32:23.126Z,3.95
2022-12-22T08:33:25.012Z,3.95
2022-12-22T08:34:27.113Z,3.97
2022-12-22T08:35:29.439Z,3.96
2022-12-22T08:36:34.057Z,3.96
2022-12-22T08:37:41.620Z,3.99
2022-12-22T08:38:43.951Z,4.02
2022-12-22T08:39:48.885Z,4.05
2022-12-22T08:40:51.127Z,4.01
2022-12-22T08:41:53.765Z,4.02
2022-12-22T08:43:02.781Z,4.00
2022-12-22T08:44:04.740Z,4.00
2022-12-22T08:45:09.542Z,4.01
2022-12-22T08:46:11.867Z,3.98
2022-12-22T08:47:17.199Z,3.97
2022-12-22T08:48:19.356Z,4.00
2022-12-22T08:49:21.180Z,4.03
2022-12-22T08:50:23.574Z,4.04
2022-12-22T08:51:25.477Z,4.01
2022-12-22T08:52:27.400Z,4.00
2022-12-22T08:54:03.346Z,4.01
2022-12-22T08:54:51.013Z,3.99
2022-12-22T08:55:54.317Z,4.00
2022-12-22T08:56:56.380Z,4.03
2022-12-22T08:57:58.253Z,4.06
2022-12-22T08:59:01.516Z,4.09
2022-12-22T09:00:04.591Z,4.12
2022-12-22T09:01:07.820Z,4.13
2022-12-22T09:02:09.802Z,4.14
2022-12-22T09:03:11.878Z,4.13
2022-12-22T09:04:14.437Z,4.17
2022-12-22T09:05:16.383Z,4.19
2022-12-22T09:06:21.513Z,4.23
2022-12-22T09:07:28.592Z,4.27
2022-12-22T09:08:30.453Z,4.27
2022-12-22T09:09:33.328Z,4.28
2022-12-22T09:10:35.211Z,4.31
2022-12-22T09:11:37.047Z,4.34
2022-12-22T09:12:38.863Z,4.37
2022-12-22T09:13:40.704Z,4.38
2022-12-22T09:14:42.577Z,4.41
2022-12-22T09:15:44.432Z,4.44
2022-12-22T09:16:46.364Z,4.46
2022-12-22T09:17:49.834Z,4.48
2022-12-22T09:18:51.723Z,4.50
2022-12-22T09:19:53.536Z,4.50
2022-12-22T09:20:56.274Z,4.52
2022-12-22T09:21:58.179Z,4.54
2022-12-22T09:23:00.710Z,4.55
2022-12-22T09:24:03.572Z,4.57
2022-12-22T09:25:05.799Z,4.58
2022-12-22T09:26:17.768Z,4.59
2022-12-22T09:27:20.808Z,4.60
2022-12-22T09:28:22.589Z,4.61
2022-12-22T09:29:24.448Z,4.64
2022-12-22T09:30:26.267Z,4.66
2022-12-22T09:31:28.500Z,4.66
2022-12-22T09:32:30.895Z,4.64
2022-12-22T09:33:33.231Z,4.62
2022-12-22T09:34:35.039Z,4.61
2022-12-22T09:35:41.028Z,4.58
2022-12-22T09:36:43.015Z,4.58
2022-12-22T09:37:44.961Z,4.59
2022-12-22T09:38:46.959Z,4.57
2022-12-22T09:39:48.811Z,4.56
2022-12-22T09:40:50.660Z,4.53
2022-12-22T09:41:57.147Z,4.48
2022-12-22T09:42:59.781Z,4.42
2022-12-22T09:44:06.004Z,4.41
2022-12-22T09:45:17.016Z,4.41
2022-12-22T09:46:25.480Z,4.38
2022-12-22T09:47:40.337Z,4.39
2022-12-22T09:48:42.132Z,4.38
2022-12-22T09:49:44.128Z,4.37
2022-12-22T09:50:46.368Z,4.39
2022-12-22T09:51:58.427Z,4.39
2022-12-22T09:53:04.174Z,4.39
2022-12-22T09:54:06.343Z,4.40
2022-12-22T09:55:34.377Z,4.41
2022-12-22T09:56:36.256Z,4.47
2022-12-22T09:57:38.162Z,4.52
2022-12-22T09:58:40.269Z,4.55
2022-12-22T09:59:42.089Z,4.54
2022-12-22T10:00:44.115Z,4.56
2022-12-22T10:01:57.471Z,4.55
2022-12-22T10:02:59.428Z,4.52
2022-12-22T10:04:10.203Z,4.49
2022-12-22T10:05:12.063Z,4.50
2022-12-22T10:06:19.266Z,4.48
2022-12-22T10:07:29.533Z,4.47
2022-12-22T10:08:35.803Z,4.51
2022-12-22T10:09:52.913Z,4.50
2022-12-22T10:10:55.638Z,4.49
2022-12-22T10:11:58.596Z,4.47
2022-12-22T10:13:02.216Z,4.49
2022-12-22T10:14:04.082Z,4.50
2022-12-22T10:15:11.736Z,4.53
2022-12-22T10:16:22.721Z,4.54
2022-12-22T10:17:26.191Z,4.55
2022-12-22T10:18:29.349Z,4.57
2022-12-22T10:19:31.327Z,4.61
2022-12-22T10:20:33.128Z,4.65
2022-12-22T10:21:35.066Z,4.68
2022-12-22T10:22:46.569Z,4.71
2022-12-22T10:23:49.164Z,4.73
2022-12-22T10:24:51.078Z,4.73
2022-12-22T10:27:27.479Z,4.67
2022-12-22T10:28:35.672Z,4.68
2022-12-22T10:29:37.521Z,4.67
2022-12-22T10:30:40.736Z,4.66
2022-12-22T10:32:01.407Z,4.65
2022-12-22T10:33:06.091Z,4.69
2022-12-22T10:34:18.143Z,4.67
2022-12-22T10:35:20.053Z,4.68
2022-12-22T10:36:23.918Z,4.67
2022-12-22T10:37:33.647Z,4.68
2022-12-22T10:38:36.895Z,4.67
2022-12-22T10:39:38.885Z,4.68
2022-12-22T10:40:45.298Z,4.69
2022-12-22T10:41:48.909Z,4.72
2022-12-22T10:42:53.363Z,4.72
2022-12-22T10:43:57.013Z,4.74
2022-12-22T10:46:05.458Z,4.76
2022-12-22T10:47:20.676Z,4.76
2022-12-22T10:48:26.466Z,4.76
2022-12-22T10:50:44.847Z,4.76
2022-12-22T10:51:48.646Z,4.74
2022-12-22T10:52:54.414Z,4.75
2022-12-22T10:53:56.581Z,4.77
2022-12-22T10:55:18.108Z,4.80
2022-12-22T10:56:27.510Z,4.87
2022-12-22T10:57:30.235Z,4.92
2022-12-22T10:58:32.038Z,4.94
2022-12-22T10:59:34.677Z,4.94
2022-12-22T11:00:37.612Z,4.95
2022-12-22T11:01:39.726Z,4.93
2022-12-22T11:02:41.742Z,4.94
2022-12-22T11:03:43.870Z,4.95
2022-12-22T11:04:45.890Z,4.98
2022-12-22T11:05:47.879Z,5.02
2022-12-22T11:06:50.136Z,5.03
2022-12-22T11:07:52.050Z,5.07
2022-12-22T11:08:58.180Z,5.09
2022-12-22T11:10:32.659Z,5.11
2022-12-22T11:12:02.012Z,5.10
2022-12-22T11:13:16.578Z,5.11
2022-12-22T11:14:24.181Z,5.08
2022-12-22T11:15:44.760Z,5.07
2022-12-22T11:17:02.840Z,5.06
2022-12-22T11:18:04.775Z,5.05
2022-12-22T11:19:24.670Z,5.00
2022-12-22T11:20:44.932Z,4.96
2022-12-22T11:22:04.431Z,4.95
2022-12-22T11:23:09.276Z,4.96
2022-12-22T11:24:29.501Z,4.99
2022-12-22T11:25:37.321Z,5.01
2022-12-22T11:27:04.051Z,5.04
2022-12-22T11:28:14.995Z,5.07
2022-12-22T11:29:19.951Z,5.11
2022-12-22T11:30:27.809Z,5.12
2022-12-22T11:31:38.705Z,5.12
2022-12-22T11:32:40.444Z,5.16
2022-12-22T11:33:51.826Z,5.19
2022-12-22T11:35:05.673Z,5.24
2022-12-22T11:36:20.114Z,5.25
2022-12-22T11:37:21.812Z,5.29
2022-12-22T11:38:26.723Z,5.29
2022-12-22T11:39:28.591Z,5.28
2022-12-22T11:40:40.044Z,5.28
2022-12-22T11:41:44.940Z,5.25
2022-12-22T11:42:56.039Z,5.29
2022-12-22T11:44:03.919Z,5.32
2022-12-22T11:45:24.421Z,5.37
2022-12-22T11:46:35.704Z,5.37
2022-12-22T11:47:49.629Z,5.38
2022-12-22T11:49:10.156Z,5.34
2022-12-22T11:51:01.889Z,5.34
2022-12-22T11:51:55.941Z,5.29
2022-12-22T11:52:57.842Z,5.27
2022-12-22T11:54:02.807Z,5.26
2022-12-22T11:55:10.059Z,5.26
2022-12-22T11:56:24.240Z,5.24
2022-12-22T11:57:34.924Z,5.23
2022-12-22T11:58:48.439Z,5.24
2022-12-22T11:59:50.295Z,5.22
2022-12-22T12:02:24.659Z,5.28
2022-12-22T12:03:51.373Z,5.30
2022-12-22T12:05:11.977Z,5.27
2022-12-22T12:06:28.807Z,5.25
2022-12-22T12:07:41.034Z,5.29
2022-12-22T12:08:51.337Z,5.29
2022-12-22T12:09:53.239Z,5.33
2022-12-22T12:11:18.799Z,5.34
2022-12-22T12:12:27.276Z,5.36
2022-12-22T12:13:50.078Z,5.37
2022-12-22T12:15:10.517Z,5.38
2022-12-22T12:16:19.117Z,5.40
2022-12-22T12:17:21.015Z,5.40
2022-12-22T12:18:32.035Z,5.39
2022-12-22T12:19:36.835Z,5.36
2022-12-22T12:20:49.541Z,5.33
2022-12-22T12:22:10.902Z,5.29
2022-12-22T12:23:31.847Z,5.23
2022-12-22T12:24:42.590Z,5.15
2022-12-22T12:25:59.918Z,5.10
2022-12-22T12:27:13.928Z,5.07
2022-12-22T12:28:29.922Z,4.97
2022-12-22T12:30:35.814Z,4.92
2022-12-22T12:31:24.306Z,4.94
2022-12-22T12:32:36.799Z,4.90
2022-12-22T12:33:56.446Z,4.89
2022-12-22T12:35:03.851Z,4.87
2022-12-22T12:36:25.067Z,4.84
2022-12-22T12:37:32.097Z,4.78
2022-12-22T12:39:06.743Z,4.76
2022-12-22T12:40:01.935Z,4.63
2022-12-22T12:41:26.747Z,4.59
2022-12-22T12:42:34.258Z,4.57
2022-12-22T12:43:37.143Z,4.57
2022-12-22T12:44:39.394Z,4.57
2022-12-22T12:45:45.734Z,4.59
2022-12-22T12:46:50.643Z,4.66
2022-12-22T12:47:52.435Z,4.71
2022-12-22T12:48:58.086Z,4.77
2022-12-22T12:50:00.042Z,4.83
2022-12-22T12:51:01.941Z,4.87
2022-12-22T12:52:08.129Z,4.92
2022-12-22T12:53:11.350Z,4.96
2022-12-22T12:54:44.112Z,4.98
2022-12-22T12:55:54.170Z,5.07
2022-12-22T12:56:59.989Z,5.11
2022-12-22T12:58:04.490Z,5.14
2022-12-22T12:59:07.854Z,5.10
2022-12-22T13:00:29.827Z,5.08
2022-12-22T13:01:31.827Z,5.08
2022-12-22T13:02:36.025Z,5.08
2022-12-22T13:04:09.422Z,5.08
2022-12-22T13:05:02.544Z,5.09
2022-12-22T13:06:05.821Z,5.10
2022-12-22T13:07:07.790Z,5.07
2022-12-22T13:08:12.677Z,5.03
2022-12-22T13:09:50.533Z,5.03
2022-12-22T13:10:46.916Z,5.05
2022-12-22T13:12:11.687Z,5.04
2022-12-22T13:13:13.685Z,5.06
2022-12-22T13:14:35.485Z,5.08
2022-12-22T13:15:38.766Z,5.12
2022-12-22T13:16:41.057Z,5.15
2022-12-22T13:17:50.007Z,5.18
2022-12-22T13:18:52.122Z,5.19
2022-12-22T13:19:54.140Z,5.21
2022-12-22T13:21:26.321Z,5.21
2022-12-22T13:22:22.236Z,5.26
2022-12-22T13:23:24.682Z,5.28
2022-12-22T13:24:29.422Z,5.30
2022-12-22T13:25:53.704Z,5.35
2022-12-22T13:26:57.227Z,5.38
2022-12-22T13:27:59.206Z,5.39
2022-12-22T13:29:03.586Z,5.44
2022-12-22T13:30:11.238Z,5.44
2022-12-22T13:31:18.777Z,5.47
2022-12-22T13:32:22.964Z,5.50
2022-12-22T13:33:25.652Z,5.53
2022-12-22T13:34:46.102Z,5.55
2022-12-22T13:35:59.287Z,5.55
2022-12-22T13:37:04.627Z,5.55
2022-12-22T13:38:07.031Z,5.58
2022-12-22T13:39:14.734Z,5.59
2022-12-22T13:40:24.418Z,5.64
2022-12-22T13:41:27.678Z,5.67
2022-12-22T13:42:31.455Z,5.66
2022-12-22T13:43:33.580Z,5.65
2022-12-22T13:44:35.617Z,5.66
2022-12-22T13:45:39.360Z,5.68
2022-12-22T13:46:42.636Z,5.66
2022-12-22T13:47:46.540Z,5.65
2022-12-22T13:48:49.813Z,5.63
2022-12-22T13:50:08.394Z,5.61
2022-12-22T13:51:22.340Z,5.59
2022-12-22T13:52:24.578Z,5.58
2022-12-22T13:54:54.988Z,5.56
2022-12-22T13:55:57.721Z,5.54
2022-12-22T13:57:01.041Z,5.54
2022-12-22T13:58:08.258Z,5.54
2022-12-22T13:59:28.467Z,5.56
2022-12-22T14:00:30.499Z,5.58
2022-12-22T14:01:32.637Z,5.57
2022-12-22T14:02:34.542Z,5.54
2022-12-22T14:03:59.584Z,5.53
2022-12-22T14:05:06.228Z,5.53
2022-12-22T14:06:26.941Z,5.54
2022-12-22T14:07:28.820Z,5.54
2022-12-22T14:08:30.555Z,5.52
2022-12-22T14:09:32.440Z,5.49
2022-12-22T14:10:43.124Z,5.50
2022-12-22T14:11:51.720Z,5.49
2022-12-22T14:12:54.666Z,5.49
2022-12-22T14:13:56.478Z,5.51
2022-12-22T14:15:00.157Z,5.49
2022-12-22T14:16:02.913Z,5.46
2022-12-22T14:17:05.506Z,5.45
2022-12-22T14:18:07.418Z,5.46
2022-12-22T14:19:11.643Z,5.48
2022-12-22T14:20:27.476Z,5.50
2022-12-22T14:21:29.491Z,5.53
2022-12-22T14:22:38.234Z,5.56
2022-12-22T14:23:41.894Z,5.58
2022-12-22T14:25:04.655Z,5.58
2022-12-22T14:26:08.508Z,5.60
2022-12-22T14:27:19.032Z,5.60
2022-12-22T14:28:25.799Z,5.56
2022-12-22T14:29:29.086Z,5.56
2022-12-22T14:30:38.233Z,5.52
2022-12-22T14:31:53.011Z,5.53
2022-12-22T14:32:56.371Z,5.57
2022-12-22T14:34:17.436Z,5.59
2022-12-22T14:35:22.527Z,5.61
2022-12-22T14:36:25.339Z,5.61
2022-12-22T14:37:32.423Z,5.60
2022-12-22T14:38:45.295Z,5.57
2022-12-22T14:39:55.116Z,5.57
2022-12-22T14:40:58.012Z,5.58
2022-12-22T14:42:11.999Z,5.59
2022-12-22T14:43:24.061Z,5.60
2022-12-22T14:44:27.180Z,5.60
2022-12-22T14:45:29.208Z,5.58
2022-12-22T14:46:38.464Z,5.58
2022-12-22T14:47:40.842Z,5.54
2022-12-22T14:48:46.806Z,5.50
2022-12-22T14:49:51.470Z,5.43
2022-12-22T14:50:54.104Z,5.39
2022-12-22T14:52:01.101Z,5.36
2022-12-22T14:53:06.297Z,5.37
2022-12-22T14:54:19.116Z,5.35
2022-12-22T14:55:32.180Z,5.32
2022-12-22T14:56:34.245Z,5.29
2022-12-22T14:57:38.259Z,5.25
2022-12-22T14:58:41.715Z,5.22
2022-12-22T14:59:57.580Z,5.24
2022-12-22T15:01:31.900Z,5.27
2022-12-22T15:02:40.105Z,5.29
2022-12-22T15:03:43.035Z,5.30
2022-12-22T15:04:44.850Z,5.33
2022-12-22T15:05:46.689Z,5.37
2022-12-22T15:06:49.502Z,5.40
2022-12-22T15:08:05.333Z,5.42
2022-12-22T15:09:12.061Z,5.44
2022-12-22T15:10:16.071Z,5.46
2022-12-22T15:11:20.035Z,5.47
2022-12-22T15:12:21.967Z,5.49
2022-12-22T15:13:24.689Z,5.49
2022-12-22T15:14:33.397Z,5.49
2022-12-22T15:15:38.732Z,5.51
2022-12-22T15:16:40.587Z,5.50
2022-12-22T15:17:44.468Z,5.48
2022-12-22T15:18:46.962Z,5.48
2022-12-22T15:19:49.325Z,5.47
2022-12-22T15:20:51.219Z,5.49
2022-12-22T15:21:53.186Z,5.47
2022-12-22T15:22:55.519Z,5.49